sensor_id;sensor_type;location;lat;lon;timestamp;temperature;humidity
20284;DHT22;10301;50.832;4.080;2024-01-15T00:01:43;2.80;96.20
20284;DHT22;10301;50.832;4.080;2024-01-15T00:04:09;2.90;93.80
20284;DHT22;10301;50.832;4.080;2024-01-15T00:06:35;2.80;92.10
20284;DHT22;10301;50.832;4.080;2024-01-15T00:09:00;2.80;90.60
20284;DHT22;10301;50.832;4.080;2024-01-15T00:11:26;2.70;92.60
20284;DHT22;10301;50.832;4.080;2024-01-15T00:13:52;2.50;93.80
20284;DHT22;10301;50.832;4.080;2024-01-15T00:16:18;2.30;98.40
20284;DHT22;10301;50.832;4.080;2024-01-15T00:18:43;2.20;99.90
20284;DHT22;10301;50.832;4.080;2024-01-15T00:21:09;2.20;99.90
20284;DHT22;10301;50.832;4.080;2024-01-15T00:23:35;2.10;99.90
20284;DHT22;10301;50.832;4.080;2024-01-15T00:26:01;2.20;99.90
20284;DHT22;10301;50.832;4.080;2024-01-15T00:28:27;2.30;99.90
20284;DHT22;10301;50.832;4.080;2024-01-15T00:30:52;2.30;99.90
20284;DHT22;10301;50.832;4.080;2024-01-15T00:33:18;2.40;99.90
20284;DHT22;10301;50.832;4.080;2024-01-15T00:35:43;2.50;99.90
20284;DHT22;10301;50.832;4.080;2024-01-15T00:38:09;2.60;99.90
20284;DHT22;10301;50.832;4.080;2024-01-15T00:40:35;2.70;99.90
20284;DHT22;10301;50.832;4.080;2024-01-15T00:43:00;2.70;99.90
20284;DHT22;10301;50.832;4.080;2024-01-15T00:45:27;2.80;99.90
20284;DHT22;10301;50.832;4.080;2024-01-15T00:47:53;2.90;99.90
20284;DHT22;10301;50.832;4.080;2024-01-15T00:50:18;3.00;99.90
20284;DHT22;10301;50.832;4.080;2024-01-15T00:52:44;3.00;99.90
20284;DHT22;10301;50.832;4.080;2024-01-15T00:55:10;3.00;99.90
20284;DHT22;10301;50.832;4.080;2024-01-15T00:57:35;2.90;99.90
20284;DHT22;10301;50.832;4.080;2024-01-15T01:00:01;2.80;99.90
20284;DHT22;10301;50.832;4.080;2024-01-15T01:02:27;2.90;99.90
20284;DHT22;10301;50.832;4.080;2024-01-15T01:04:52;3.00;99.90
20284;DHT22;10301;50.832;4.080;2024-01-15T01:07:18;2.90;99.90
20284;DHT22;10301;50.832;4.080;2024-01-15T01:09:44;2.80;99.90
20284;DHT22;10301;50.832;4.080;2024-01-15T01:12:11;2.90;99.90
20284;DHT22;10301;50.832;4.080;2024-01-15T01:14:37;2.70;99.90
20284;DHT22;10301;50.832;4.080;2024-01-15T01:17:03;2.80;99.90
20284;DHT22;10301;50.832;4.080;2024-01-15T01:19:28;2.80;99.90
20284;DHT22;10301;50.832;4.080;2024-01-15T01:21:55;2.80;99.90
20284;DHT22;10301;50.832;4.080;2024-01-15T01:24:21;3.00;99.90
20284;DHT22;10301;50.832;4.080;2024-01-15T01:26:47;3.10;99.90
20284;DHT22;10301;50.832;4.080;2024-01-15T01:29:12;3.20;99.90
20284;DHT22;10301;50.832;4.080;2024-01-15T01:31:43;3.30;99.90
20284;DHT22;10301;50.832;4.080;2024-01-15T01:34:09;3.40;99.90
20284;DHT22;10301;50.832;4.080;2024-01-15T01:36:35;3.40;99.90
20284;DHT22;10301;50.832;4.080;2024-01-15T01:39:01;3.20;99.90
20284;DHT22;10301;50.832;4.080;2024-01-15T01:41:26;3.30;99.90
20284;DHT22;10301;50.832;4.080;2024-01-15T01:43:52;3.10;99.90
20284;DHT22;10301;50.832;4.080;2024-01-15T01:46:18;3.00;99.90
20284;DHT22;10301;50.832;4.080;2024-01-15T01:48:43;3.00;99.90
20284;DHT22;10301;50.832;4.080;2024-01-15T01:51:09;3.20;99.90
20284;DHT22;10301;50.832;4.080;2024-01-15T01:53:37;3.20;99.90
20284;DHT22;10301;50.832;4.080;2024-01-15T01:56:04;3.30;99.90
20284;DHT22;10301;50.832;4.080;2024-01-15T01:58:30;3.30;99.90
20284;DHT22;10301;50.832;4.080;2024-01-15T02:00:57;3.40;99.90
20284;DHT22;10301;50.832;4.080;2024-01-15T02:03:24;3.50;99.90
20284;DHT22;10301;50.832;4.080;2024-01-15T02:05:50;3.30;99.90
20284;DHT22;10301;50.832;4.080;2024-01-15T02:08:17;3.30;99.90
20284;DHT22;10301;50.832;4.080;2024-01-15T02:10:42;3.30;99.90
20284;DHT22;10301;50.832;4.080;2024-01-15T02:13:08;3.30;99.90
20284;DHT22;10301;50.832;4.080;2024-01-15T02:15:34;3.40;99.90
20284;DHT22;10301;50.832;4.080;2024-01-15T02:18:04;3.20;99.90
20284;DHT22;10301;50.832;4.080;2024-01-15T02:20:31;3.20;99.90
20284;DHT22;10301;50.832;4.080;2024-01-15T02:23:11;3.20;99.90
20284;DHT22;10301;50.832;4.080;2024-01-15T02:25:39;3.10;99.90
20284;DHT22;10301;50.832;4.080;2024-01-15T02:28:06;3.10;99.90
20284;DHT22;10301;50.832;4.080;2024-01-15T02:30:37;3.20;99.90
20284;DHT22;10301;50.832;4.080;2024-01-15T02:33:05;3.20;99.90
20284;DHT22;10301;50.832;4.080;2024-01-15T02:35:30;3.00;99.90
20284;DHT22;10301;50.832;4.080;2024-01-15T02:37:56;3.10;99.90
20284;DHT22;10301;50.832;4.080;2024-01-15T02:40:22;3.20;99.90
20284;DHT22;10301;50.832;4.080;2024-01-15T02:42:48;3.10;99.90
20284;DHT22;10301;50.832;4.080;2024-01-15T02:45:13;3.30;99.90
20284;DHT22;10301;50.832;4.080;2024-01-15T02:47:39;3.30;99.90
20284;DHT22;10301;50.832;4.080;2024-01-15T02:50:05;3.40;99.90
20284;DHT22;10301;50.832;4.080;2024-01-15T02:52:31;3.30;99.90
20284;DHT22;10301;50.832;4.080;2024-01-15T02:54:57;3.10;99.90
20284;DHT22;10301;50.832;4.080;2024-01-15T02:57:22;3.20;99.90
20284;DHT22;10301;50.832;4.080;2024-01-15T02:59:48;3.20;99.90
20284;DHT22;10301;50.832;4.080;2024-01-15T03:02:13;3.30;99.90
20284;DHT22;10301;50.832;4.080;2024-01-15T03:04:43;3.40;99.90
20284;DHT22;10301;50.832;4.080;2024-01-15T03:07:09;3.40;99.90
20284;DHT22;10301;50.832;4.080;2024-01-15T03:09:34;3.20;99.90
20284;DHT22;10301;50.832;4.080;2024-01-15T03:12:00;3.20;99.90
20284;DHT22;10301;50.832;4.080;2024-01-15T03:14:26;3.30;99.90
20284;DHT22;10301;50.832;4.080;2024-01-15T03:16:52;3.50;99.90
20284;DHT22;10301;50.832;4.080;2024-01-15T03:19:17;3.80;99.90
20284;DHT22;10301;50.832;4.080;2024-01-15T03:21:43;3.60;99.90
20284;DHT22;10301;50.832;4.080;2024-01-15T03:24:09;3.30;99.90
20284;DHT22;10301;50.832;4.080;2024-01-15T03:26:34;3.30;99.90
20284;DHT22;10301;50.832;4.080;2024-01-15T03:29:00;3.20;99.90
20284;DHT22;10301;50.832;4.080;2024-01-15T03:31:26;3.20;99.90
20284;DHT22;10301;50.832;4.080;2024-01-15T03:33:51;3.10;99.90
20284;DHT22;10301;50.832;4.080;2024-01-15T03:36:17;3.20;99.90
20284;DHT22;10301;50.832;4.080;2024-01-15T03:38:43;3.10;99.90
20284;DHT22;10301;50.832;4.080;2024-01-15T03:41:08;3.20;99.90
20284;DHT22;10301;50.832;4.080;2024-01-15T03:43:34;3.10;99.90
20284;DHT22;10301;50.832;4.080;2024-01-15T03:46:00;3.10;99.90
20284;DHT22;10301;50.832;4.080;2024-01-15T03:48:25;3.00;99.90
20284;DHT22;10301;50.832;4.080;2024-01-15T03:50:51;3.00;99.90
20284;DHT22;10301;50.832;4.080;2024-01-15T03:53:16;3.10;99.90
20284;DHT22;10301;50.832;4.080;2024-01-15T03:55:42;3.20;99.90
20284;DHT22;10301;50.832;4.080;2024-01-15T03:58:08;3.20;99.90
20284;DHT22;10301;50.832;4.080;2024-01-15T04:00:34;3.20;99.90
20284;DHT22;10301;50.832;4.080;2024-01-15T04:02:59;3.20;99.90
20284;DHT22;10301;50.832;4.080;2024-01-15T04:05:25;3.20;99.90
20284;DHT22;10301;50.832;4.080;2024-01-15T04:07:51;3.20;99.90
20284;DHT22;10301;50.832;4.080;2024-01-15T04:10:17;3.20;99.90
20284;DHT22;10301;50.832;4.080;2024-01-15T04:12:42;3.10;99.90
20284;DHT22;10301;50.832;4.080;2024-01-15T04:15:08;3.10;99.90
20284;DHT22;10301;50.832;4.080;2024-01-15T04:17:34;3.10;99.90
20284;DHT22;10301;50.832;4.080;2024-01-15T04:19:59;3.10;99.90
20284;DHT22;10301;50.832;4.080;2024-01-15T04:22:26;3.10;99.90
20284;DHT22;10301;50.832;4.080;2024-01-15T04:24:52;3.10;99.90
20284;DHT22;10301;50.832;4.080;2024-01-15T04:27:18;3.10;99.90
20284;DHT22;10301;50.832;4.080;2024-01-15T04:29:43;3.10;99.90
20284;DHT22;10301;50.832;4.080;2024-01-15T04:32:10;3.00;99.90
20284;DHT22;10301;50.832;4.080;2024-01-15T04:34:36;2.90;99.90
20284;DHT22;10301;50.832;4.080;2024-01-15T04:37:01;3.00;99.90
20284;DHT22;10301;50.832;4.080;2024-01-15T04:39:27;2.80;99.90
20284;DHT22;10301;50.832;4.080;2024-01-15T04:41:53;2.80;99.90
20284;DHT22;10301;50.832;4.080;2024-01-15T04:44:18;3.10;99.90
20284;DHT22;10301;50.832;4.080;2024-01-15T04:46:44;3.00;99.90
20284;DHT22;10301;50.832;4.080;2024-01-15T04:49:11;3.00;99.90
20284;DHT22;10301;50.832;4.080;2024-01-15T04:51:36;3.00;99.90
20284;DHT22;10301;50.832;4.080;2024-01-15T04:54:02;2.90;99.90
20284;DHT22;10301;50.832;4.080;2024-01-15T04:56:28;3.00;99.90
20284;DHT22;10301;50.832;4.080;2024-01-15T04:58:53;2.90;99.90
20284;DHT22;10301;50.832;4.080;2024-01-15T05:01:19;2.80;99.90
20284;DHT22;10301;50.832;4.080;2024-01-15T05:03:44;2.80;99.90
20284;DHT22;10301;50.832;4.080;2024-01-15T05:06:10;2.80;99.90
20284;DHT22;10301;50.832;4.080;2024-01-15T05:08:36;3.00;99.90
20284;DHT22;10301;50.832;4.080;2024-01-15T05:11:01;3.10;99.90
20284;DHT22;10301;50.832;4.080;2024-01-15T05:13:27;3.20;99.90
20284;DHT22;10301;50.832;4.080;2024-01-15T05:15:53;3.00;99.90
20284;DHT22;10301;50.832;4.080;2024-01-15T05:18:19;2.90;99.90
20284;DHT22;10301;50.832;4.080;2024-01-15T05:20:44;3.00;99.90
20284;DHT22;10301;50.832;4.080;2024-01-15T05:23:10;2.90;99.90
20284;DHT22;10301;50.832;4.080;2024-01-15T05:25:36;3.00;99.90
20284;DHT22;10301;50.832;4.080;2024-01-15T05:28:02;3.30;99.90
20284;DHT22;10301;50.832;4.080;2024-01-15T05:30:27;3.40;99.90
20284;DHT22;10301;50.832;4.080;2024-01-15T05:32:54;3.30;99.90
20284;DHT22;10301;50.832;4.080;2024-01-15T05:35:19;3.10;99.90
20284;DHT22;10301;50.832;4.080;2024-01-15T05:37:45;2.80;99.90
20284;DHT22;10301;50.832;4.080;2024-01-15T05:40:12;2.80;99.90
20284;DHT22;10301;50.832;4.080;2024-01-15T05:42:38;2.90;99.90
20284;DHT22;10301;50.832;4.080;2024-01-15T05:45:05;3.10;99.90
20284;DHT22;10301;50.832;4.080;2024-01-15T05:47:31;3.00;99.90
20284;DHT22;10301;50.832;4.080;2024-01-15T05:49:57;3.10;99.90
20284;DHT22;10301;50.832;4.080;2024-01-15T05:52:23;3.20;99.90
20284;DHT22;10301;50.832;4.080;2024-01-15T05:54:49;3.30;99.90
20284;DHT22;10301;50.832;4.080;2024-01-15T05:57:16;3.20;99.90
20284;DHT22;10301;50.832;4.080;2024-01-15T05:59:42;3.00;99.90
20284;DHT22;10301;50.832;4.080;2024-01-15T06:02:08;2.80;99.90
20284;DHT22;10301;50.832;4.080;2024-01-15T06:04:33;2.60;99.90
20284;DHT22;10301;50.832;4.080;2024-01-15T06:06:59;2.60;99.90
20284;DHT22;10301;50.832;4.080;2024-01-15T06:09:25;2.60;99.90
20284;DHT22;10301;50.832;4.080;2024-01-15T06:11:50;2.50;99.90
20284;DHT22;10301;50.832;4.080;2024-01-15T06:14:16;2.60;99.90
20284;DHT22;10301;50.832;4.080;2024-01-15T06:16:42;2.50;99.90
20284;DHT22;10301;50.832;4.080;2024-01-15T06:19:07;2.50;99.90
20284;DHT22;10301;50.832;4.080;2024-01-15T06:21:33;2.60;99.90
20284;DHT22;10301;50.832;4.080;2024-01-15T06:23:59;2.60;99.90
20284;DHT22;10301;50.832;4.080;2024-01-15T06:26:24;2.70;99.90
20284;DHT22;10301;50.832;4.080;2024-01-15T06:28:50;2.70;99.90
20284;DHT22;10301;50.832;4.080;2024-01-15T06:31:16;2.60;99.90
20284;DHT22;10301;50.832;4.080;2024-01-15T06:33:41;2.50;99.90
20284;DHT22;10301;50.832;4.080;2024-01-15T06:36:07;2.40;99.90
20284;DHT22;10301;50.832;4.080;2024-01-15T06:38:33;2.40;99.90
20284;DHT22;10301;50.832;4.080;2024-01-15T06:40:59;2.20;99.90
20284;DHT22;10301;50.832;4.080;2024-01-15T06:43:24;2.10;99.90
20284;DHT22;10301;50.832;4.080;2024-01-15T06:45:50;1.90;99.90
20284;DHT22;10301;50.832;4.080;2024-01-15T06:48:15;1.90;99.90
20284;DHT22;10301;50.832;4.080;2024-01-15T06:50:45;2.10;99.90
20284;DHT22;10301;50.832;4.080;2024-01-15T06:53:11;2.20;99.90
20284;DHT22;10301;50.832;4.080;2024-01-15T06:55:37;2.20;99.90
20284;DHT22;10301;50.832;4.080;2024-01-15T06:58:03;2.30;99.90
20284;DHT22;10301;50.832;4.080;2024-01-15T07:00:29;2.30;99.90
20284;DHT22;10301;50.832;4.080;2024-01-15T07:02:54;2.20;99.90
20284;DHT22;10301;50.832;4.080;2024-01-15T07:05:21;2.30;99.90
20284;DHT22;10301;50.832;4.080;2024-01-15T07:07:46;2.20;99.90
20284;DHT22;10301;50.832;4.080;2024-01-15T07:10:13;2.20;99.90
20284;DHT22;10301;50.832;4.080;2024-01-15T07:12:38;2.10;99.90
20284;DHT22;10301;50.832;4.080;2024-01-15T07:15:05;2.00;99.90
20284;DHT22;10301;50.832;4.080;2024-01-15T07:17:33;2.00;99.90
20284;DHT22;10301;50.832;4.080;2024-01-15T07:19:59;1.90;99.90
20284;DHT22;10301;50.832;4.080;2024-01-15T07:22:24;2.00;99.90
20284;DHT22;10301;50.832;4.080;2024-01-15T07:24:50;2.10;99.90
20284;DHT22;10301;50.832;4.080;2024-01-15T07:27:16;2.00;99.90
20284;DHT22;10301;50.832;4.080;2024-01-15T07:29:41;1.90;99.90
20284;DHT22;10301;50.832;4.080;2024-01-15T07:32:08;1.90;99.90
20284;DHT22;10301;50.832;4.080;2024-01-15T07:34:34;1.80;99.90
20284;DHT22;10301;50.832;4.080;2024-01-15T07:37:00;1.90;99.90
20284;DHT22;10301;50.832;4.080;2024-01-15T07:39:25;2.00;99.90
20284;DHT22;10301;50.832;4.080;2024-01-15T07:41:52;2.00;99.90
20284;DHT22;10301;50.832;4.080;2024-01-15T07:44:17;1.90;99.90
20284;DHT22;10301;50.832;4.080;2024-01-15T07:46:47;1.80;99.90
20284;DHT22;10301;50.832;4.080;2024-01-15T07:49:13;1.70;99.90
20284;DHT22;10301;50.832;4.080;2024-01-15T07:51:39;1.70;99.90
20284;DHT22;10301;50.832;4.080;2024-01-15T07:54:06;1.70;99.90
20284;DHT22;10301;50.832;4.080;2024-01-15T07:56:32;1.70;99.90
20284;DHT22;10301;50.832;4.080;2024-01-15T07:58:58;1.60;99.90
20284;DHT22;10301;50.832;4.080;2024-01-15T08:01:23;1.70;99.90
20284;DHT22;10301;50.832;4.080;2024-01-15T08:03:49;1.80;99.90
20284;DHT22;10301;50.832;4.080;2024-01-15T08:06:15;1.80;99.90
20284;DHT22;10301;50.832;4.080;2024-01-15T08:08:41;1.70;99.90
20284;DHT22;10301;50.832;4.080;2024-01-15T08:11:06;1.70;99.90
20284;DHT22;10301;50.832;4.080;2024-01-15T08:13:32;1.70;99.90
20284;DHT22;10301;50.832;4.080;2024-01-15T08:15:58;1.60;99.90
20284;DHT22;10301;50.832;4.080;2024-01-15T08:18:23;1.80;99.90
20284;DHT22;10301;50.832;4.080;2024-01-15T08:20:49;1.80;99.90
20284;DHT22;10301;50.832;4.080;2024-01-15T08:23:16;2.00;99.90
20284;DHT22;10301;50.832;4.080;2024-01-15T08:25:42;2.00;99.90
20284;DHT22;10301;50.832;4.080;2024-01-15T08:28:08;2.10;99.90
20284;DHT22;10301;50.832;4.080;2024-01-15T08:30:34;2.10;99.90
20284;DHT22;10301;50.832;4.080;2024-01-15T08:33:00;2.00;99.90
20284;DHT22;10301;50.832;4.080;2024-01-15T08:35:25;2.10;99.90
20284;DHT22;10301;50.832;4.080;2024-01-15T08:37:52;2.30;99.90
20284;DHT22;10301;50.832;4.080;2024-01-15T08:40:18;2.40;99.90
20284;DHT22;10301;50.832;4.080;2024-01-15T08:42:44;2.20;99.90
20284;DHT22;10301;50.832;4.080;2024-01-15T08:45:14;2.20;99.90
20284;DHT22;10301;50.832;4.080;2024-01-15T08:47:39;2.30;99.90
20284;DHT22;10301;50.832;4.080;2024-01-15T08:50:05;2.20;99.90
20284;DHT22;10301;50.832;4.080;2024-01-15T08:52:31;2.50;99.90
20284;DHT22;10301;50.832;4.080;2024-01-15T08:54:57;2.40;99.90
20284;DHT22;10301;50.832;4.080;2024-01-15T08:57:22;2.50;99.90
20284;DHT22;10301;50.832;4.080;2024-01-15T08:59:48;2.50;99.90
20284;DHT22;10301;50.832;4.080;2024-01-15T09:02:14;2.60;99.90
20284;DHT22;10301;50.832;4.080;2024-01-15T09:04:40;2.50;99.90
20284;DHT22;10301;50.832;4.080;2024-01-15T09:07:07;2.60;99.90
20284;DHT22;10301;50.832;4.080;2024-01-15T09:09:33;2.60;99.90
20284;DHT22;10301;50.832;4.080;2024-01-15T09:11:59;2.70;99.90
20284;DHT22;10301;50.832;4.080;2024-01-15T09:14:25;2.80;99.90
20284;DHT22;10301;50.832;4.080;2024-01-15T09:16:52;2.80;99.90
20284;DHT22;10301;50.832;4.080;2024-01-15T09:19:18;2.90;99.90
20284;DHT22;10301;50.832;4.080;2024-01-15T09:21:44;2.80;99.90
20284;DHT22;10301;50.832;4.080;2024-01-15T09:24:10;3.00;99.90
20284;DHT22;10301;50.832;4.080;2024-01-15T09:26:35;2.80;99.90
20284;DHT22;10301;50.832;4.080;2024-01-15T09:29:01;2.90;99.90
20284;DHT22;10301;50.832;4.080;2024-01-15T09:31:28;3.10;99.90
20284;DHT22;10301;50.832;4.080;2024-01-15T09:33:54;3.10;99.90
20284;DHT22;10301;50.832;4.080;2024-01-15T09:36:22;3.30;99.90
20284;DHT22;10301;50.832;4.080;2024-01-15T09:38:48;3.10;99.90
20284;DHT22;10301;50.832;4.080;2024-01-15T09:41:14;3.10;99.90
20284;DHT22;10301;50.832;4.080;2024-01-15T09:43:40;3.10;99.90
20284;DHT22;10301;50.832;4.080;2024-01-15T09:46:06;3.20;99.90
20284;DHT22;10301;50.832;4.080;2024-01-15T09:48:32;3.40;99.90
20284;DHT22;10301;50.832;4.080;2024-01-15T09:51:01;3.30;99.90
20284;DHT22;10301;50.832;4.080;2024-01-15T09:53:27;3.00;99.90
20284;DHT22;10301;50.832;4.080;2024-01-15T09:55:53;3.00;99.90
20284;DHT22;10301;50.832;4.080;2024-01-15T09:58:19;3.10;99.90
20284;DHT22;10301;50.832;4.080;2024-01-15T10:00:45;3.20;99.90
20284;DHT22;10301;50.832;4.080;2024-01-15T10:03:13;3.30;99.90
20284;DHT22;10301;50.832;4.080;2024-01-15T10:05:39;3.20;99.90
20284;DHT22;10301;50.832;4.080;2024-01-15T10:08:05;3.40;99.90
20284;DHT22;10301;50.832;4.080;2024-01-15T10:10:31;3.60;99.90
20284;DHT22;10301;50.832;4.080;2024-01-15T10:12:58;3.60;99.90
20284;DHT22;10301;50.832;4.080;2024-01-15T10:15:27;3.50;99.90
20284;DHT22;10301;50.832;4.080;2024-01-15T10:17:53;3.70;99.90
20284;DHT22;10301;50.832;4.080;2024-01-15T10:20:19;3.60;99.90
20284;DHT22;10301;50.832;4.080;2024-01-15T10:22:47;3.80;99.90
20284;DHT22;10301;50.832;4.080;2024-01-15T10:25:14;3.90;99.90
20284;DHT22;10301;50.832;4.080;2024-01-15T10:27:43;4.00;99.90
20284;DHT22;10301;50.832;4.080;2024-01-15T10:30:12;4.10;99.90
20284;DHT22;10301;50.832;4.080;2024-01-15T10:32:39;4.10;99.90
20284;DHT22;10301;50.832;4.080;2024-01-15T10:35:07;4.20;99.90
20284;DHT22;10301;50.832;4.080;2024-01-15T10:37:33;4.10;99.90
20284;DHT22;10301;50.832;4.080;2024-01-15T10:40:02;4.20;99.90
20284;DHT22;10301;50.832;4.080;2024-01-15T10:42:30;4.10;99.90
20284;DHT22;10301;50.832;4.080;2024-01-15T10:44:56;4.20;99.90
20284;DHT22;10301;50.832;4.080;2024-01-15T10:47:23;4.30;99.90
20284;DHT22;10301;50.832;4.080;2024-01-15T10:49:49;4.20;99.90
20284;DHT22;10301;50.832;4.080;2024-01-15T10:52:15;4.10;99.90
20284;DHT22;10301;50.832;4.080;2024-01-15T10:54:41;4.00;99.90
20284;DHT22;10301;50.832;4.080;2024-01-15T10:57:08;4.40;99.90
20284;DHT22;10301;50.832;4.080;2024-01-15T10:59:34;4.20;99.90
20284;DHT22;10301;50.832;4.080;2024-01-15T11:02:01;4.40;99.90
20284;DHT22;10301;50.832;4.080;2024-01-15T11:04:27;4.30;99.90
20284;DHT22;10301;50.832;4.080;2024-01-15T11:06:54;4.50;99.90
20284;DHT22;10301;50.832;4.080;2024-01-15T11:09:21;4.50;99.90
20284;DHT22;10301;50.832;4.080;2024-01-15T11:11:47;4.50;99.90
20284;DHT22;10301;50.832;4.080;2024-01-15T11:15:00;4.40;99.90
20284;DHT22;10301;50.832;4.080;2024-01-15T11:17:22;4.60;99.90
20284;DHT22;10301;50.832;4.080;2024-01-15T11:19:49;4.70;99.90
20284;DHT22;10301;50.832;4.080;2024-01-15T11:25:15;5.00;99.90
20284;DHT22;10301;50.832;4.080;2024-01-15T11:27:42;5.20;99.90
20284;DHT22;10301;50.832;4.080;2024-01-15T11:30:09;5.10;99.90
20284;DHT22;10301;50.832;4.080;2024-01-15T11:32:36;5.00;99.90
20284;DHT22;10301;50.832;4.080;2024-01-15T11:35:02;4.90;99.90
20284;DHT22;10301;50.832;4.080;2024-01-15T11:37:56;4.60;99.90
20284;DHT22;10301;50.832;4.080;2024-01-15T11:40:21;4.50;99.90
20284;DHT22;10301;50.832;4.080;2024-01-15T11:42:47;4.70;99.90
20284;DHT22;10301;50.832;4.080;2024-01-15T11:45:19;4.80;99.90
20284;DHT22;10301;50.832;4.080;2024-01-15T11:48:14;4.70;99.90
20284;DHT22;10301;50.832;4.080;2024-01-15T11:55:51;4.50;99.90
20284;DHT22;10301;50.832;4.080;2024-01-15T11:58:17;4.40;99.90
20284;DHT22;10301;50.832;4.080;2024-01-15T12:00:45;4.60;99.90
20284;DHT22;10301;50.832;4.080;2024-01-15T12:03:12;4.60;99.90
20284;DHT22;10301;50.832;4.080;2024-01-15T12:05:38;4.80;99.90
20284;DHT22;10301;50.832;4.080;2024-01-15T12:08:04;4.80;99.90
20284;DHT22;10301;50.832;4.080;2024-01-15T12:10:39;4.80;99.90
20284;DHT22;10301;50.832;4.080;2024-01-15T12:15:32;4.90;99.90
20284;DHT22;10301;50.832;4.080;2024-01-15T12:17:59;4.80;99.90
20284;DHT22;10301;50.832;4.080;2024-01-15T12:20:26;4.80;99.90
20284;DHT22;10301;50.832;4.080;2024-01-15T12:22:53;4.70;99.90
20284;DHT22;10301;50.832;4.080;2024-01-15T12:25:19;4.80;99.90
20284;DHT22;10301;50.832;4.080;2024-01-15T12:27:45;4.80;99.90
20284;DHT22;10301;50.832;4.080;2024-01-15T12:30:12;5.00;99.90
20284;DHT22;10301;50.832;4.080;2024-01-15T12:32:40;5.10;99.90
20284;DHT22;10301;50.832;4.080;2024-01-15T12:35:07;5.20;99.90
20284;DHT22;10301;50.832;4.080;2024-01-15T12:37:44;5.00;99.90
20284;DHT22;10301;50.832;4.080;2024-01-15T12:40:12;5.00;99.90
20284;DHT22;10301;50.832;4.080;2024-01-15T12:42:40;5.10;99.90
20284;DHT22;10301;50.832;4.080;2024-01-15T12:45:06;5.20;99.90
20284;DHT22;10301;50.832;4.080;2024-01-15T12:47:32;5.20;99.90
20284;DHT22;10301;50.832;4.080;2024-01-15T12:49:58;5.20;99.90
20284;DHT22;10301;50.832;4.080;2024-01-15T12:52:27;5.30;99.90
20284;DHT22;10301;50.832;4.080;2024-01-15T12:54:52;5.20;99.90
20284;DHT22;10301;50.832;4.080;2024-01-15T12:57:18;5.20;99.90
20284;DHT22;10301;50.832;4.080;2024-01-15T12:59:44;5.20;99.90
20284;DHT22;10301;50.832;4.080;2024-01-15T13:02:14;5.20;99.90
20284;DHT22;10301;50.832;4.080;2024-01-15T13:04:39;5.10;99.90
20284;DHT22;10301;50.832;4.080;2024-01-15T13:07:06;5.30;99.90
20284;DHT22;10301;50.832;4.080;2024-01-15T13:09:35;5.40;99.90
20284;DHT22;10301;50.832;4.080;2024-01-15T13:12:04;5.40;99.90
20284;DHT22;10301;50.832;4.080;2024-01-15T13:14:31;5.40;99.90
20284;DHT22;10301;50.832;4.080;2024-01-15T13:16:58;5.40;99.90
20284;DHT22;10301;50.832;4.080;2024-01-15T13:19:24;5.50;99.90
20284;DHT22;10301;50.832;4.080;2024-01-15T13:21:49;5.70;99.90
20284;DHT22;10301;50.832;4.080;2024-01-15T13:24:19;5.60;99.90
20284;DHT22;10301;50.832;4.080;2024-01-15T13:26:44;5.50;99.90
20284;DHT22;10301;50.832;4.080;2024-01-15T13:29:10;5.40;99.90
20284;DHT22;10301;50.832;4.080;2024-01-15T13:31:36;5.40;99.90
20284;DHT22;10301;50.832;4.080;2024-01-15T13:34:02;5.30;99.90
20284;DHT22;10301;50.832;4.080;2024-01-15T13:36:28;5.30;99.90
20284;DHT22;10301;50.832;4.080;2024-01-15T13:38:54;5.30;99.90
20284;DHT22;10301;50.832;4.080;2024-01-15T13:41:20;5.20;99.90
20284;DHT22;10301;50.832;4.080;2024-01-15T13:43:55;5.20;99.90
20284;DHT22;10301;50.832;4.080;2024-01-15T13:46:22;5.60;99.90
20284;DHT22;10301;50.832;4.080;2024-01-15T13:48:48;5.70;99.90
20284;DHT22;10301;50.832;4.080;2024-01-15T13:51:14;5.80;99.90
20284;DHT22;10301;50.832;4.080;2024-01-15T13:53:40;5.80;99.90
20284;DHT22;10301;50.832;4.080;2024-01-15T13:56:06;5.70;99.90
20284;DHT22;10301;50.832;4.080;2024-01-15T13:58:32;5.50;99.90
20284;DHT22;10301;50.832;4.080;2024-01-15T14:00:59;5.60;99.90
20284;DHT22;10301;50.832;4.080;2024-01-15T14:03:24;5.50;99.90
20284;DHT22;10301;50.832;4.080;2024-01-15T14:05:51;5.30;99.90
20284;DHT22;10301;50.832;4.080;2024-01-15T14:08:17;5.50;99.90
20284;DHT22;10301;50.832;4.080;2024-01-15T14:10:43;5.40;99.90
20284;DHT22;10301;50.832;4.080;2024-01-15T14:13:09;5.20;99.90
20284;DHT22;10301;50.832;4.080;2024-01-15T14:15:35;5.10;99.90
20284;DHT22;10301;50.832;4.080;2024-01-15T14:18:00;5.00;99.90
20284;DHT22;10301;50.832;4.080;2024-01-15T14:20:26;5.00;99.90
20284;DHT22;10301;50.832;4.080;2024-01-15T14:22:53;5.20;99.90
20284;DHT22;10301;50.832;4.080;2024-01-15T14:25:19;5.50;99.90
20284;DHT22;10301;50.832;4.080;2024-01-15T14:27:45;5.40;99.90
20284;DHT22;10301;50.832;4.080;2024-01-15T14:30:11;5.50;99.90
20284;DHT22;10301;50.832;4.080;2024-01-15T14:32:38;5.60;99.90
20284;DHT22;10301;50.832;4.080;2024-01-15T14:35:05;5.60;99.90
20284;DHT22;10301;50.832;4.080;2024-01-15T14:37:31;5.50;99.90
20284;DHT22;10301;50.832;4.080;2024-01-15T14:39:57;5.30;99.90
20284;DHT22;10301;50.832;4.080;2024-01-15T14:42:23;5.20;99.90
20284;DHT22;10301;50.832;4.080;2024-01-15T14:44:49;5.40;99.90
20284;DHT22;10301;50.832;4.080;2024-01-15T14:47:15;5.70;99.90
20284;DHT22;10301;50.832;4.080;2024-01-15T14:49:41;5.80;99.90
20284;DHT22;10301;50.832;4.080;2024-01-15T14:52:06;5.90;99.90
20284;DHT22;10301;50.832;4.080;2024-01-15T14:54:32;5.80;99.90
20284;DHT22;10301;50.832;4.080;2024-01-15T14:56:58;5.70;99.90
20284;DHT22;10301;50.832;4.080;2024-01-15T14:59:24;5.50;99.90
20284;DHT22;10301;50.832;4.080;2024-01-15T15:01:49;5.10;99.90
20284;DHT22;10301;50.832;4.080;2024-01-15T15:04:15;4.80;99.90
20284;DHT22;10301;50.832;4.080;2024-01-15T15:06:41;4.00;99.90
20284;DHT22;10301;50.832;4.080;2024-01-15T15:09:06;3.90;99.90
20284;DHT22;10301;50.832;4.080;2024-01-15T15:11:37;4.10;99.90
20284;DHT22;10301;50.832;4.080;2024-01-15T15:14:03;4.30;99.90
20284;DHT22;10301;50.832;4.080;2024-01-15T15:16:30;4.30;99.90
20284;DHT22;10301;50.832;4.080;2024-01-15T15:18:55;4.10;99.90
20284;DHT22;10301;50.832;4.080;2024-01-15T15:21:21;4.00;99.90
20284;DHT22;10301;50.832;4.080;2024-01-15T15:23:47;4.10;99.90
20284;DHT22;10301;50.832;4.080;2024-01-15T15:26:15;4.00;99.90
20284;DHT22;10301;50.832;4.080;2024-01-15T15:28:41;4.20;99.90
20284;DHT22;10301;50.832;4.080;2024-01-15T15:31:07;4.30;99.90
20284;DHT22;10301;50.832;4.080;2024-01-15T15:33:34;4.50;99.90
20284;DHT22;10301;50.832;4.080;2024-01-15T15:35:59;4.70;99.90
20284;DHT22;10301;50.832;4.080;2024-01-15T15:38:33;4.90;99.90
20284;DHT22;10301;50.832;4.080;2024-01-15T15:40:59;5.10;99.90
20284;DHT22;10301;50.832;4.080;2024-01-15T15:43:28;4.90;99.90
20284;DHT22;10301;50.832;4.080;2024-01-15T15:45:54;4.80;99.90
20284;DHT22;10301;50.832;4.080;2024-01-15T15:48:20;4.70;99.90
20284;DHT22;10301;50.832;4.080;2024-01-15T15:50:46;4.60;99.90